createdAt,value
2019-04-14T00:04:26.817Z,18.63
2019-04-14T00:09:31.575Z,20.77
2019-04-14T00:14:35.746Z,19.50
2019-04-14T00:19:39.513Z,19.10
2019-04-14T00:24:44.238Z,16.87
2019-04-14T00:29:48.313Z,21.53
2019-04-14T00:35:06.425Z,15.90
2019-04-14T00:40:15.011Z,18.93
2019-04-14T00:45:42.654Z,21.63
2019-04-14T00:50:40.919Z,14.20
2019-04-14T00:55:44.825Z,20.00
2019-04-14T01:00:50.064Z,19.07
2019-04-14T01:05:54.744Z,19.70
2019-04-14T01:10:58.878Z,16.90
2019-04-14T01:16:08.713Z,17.00
2019-04-14T01:21:08.924Z,16.43
2019-04-14T01:26:40.202Z,17.00
2019-04-14T01:31:44.688Z,19.43
2019-04-14T01:36:49.582Z,19.93
2019-04-14T01:41:54.347Z,23.90
2019-04-14T01:46:58.823Z,23.10
2019-04-14T01:52:21.687Z,21.47
2019-04-14T01:57:43.794Z,19.33
2019-04-14T02:02:48.694Z,22.70
2019-04-14T02:07:53.680Z,22.17
2019-04-14T02:12:58.491Z,21.90
2019-04-14T02:18:03.217Z,26.17
2019-04-14T02:23:08.200Z,20.97
2019-04-14T02:28:13.341Z,24.17
2019-04-14T02:38:57.225Z,18.70
2019-04-14T02:44:01.670Z,15.60
2019-04-14T02:48:59.122Z,12.70
2019-04-14T02:54:07.427Z,12.67
2019-04-14T02:59:13.953Z,11.87
2019-04-14T03:04:19.828Z,10.23
2019-04-14T03:09:29.546Z,10.00
2019-04-14T03:14:30.966Z,8.63
2019-04-14T03:19:44.006Z,9.03
2019-04-14T03:24:51.437Z,10.17
2019-04-14T03:30:48.722Z,7.27
2019-04-14T03:50:55.635Z,8.30
2019-04-14T03:56:07.799Z,7.90
2019-04-14T04:01:10.451Z,7.60
2019-04-14T04:06:14.476Z,8.07
2019-04-14T04:11:19.356Z,8.87
2019-04-14T04:16:41.826Z,8.73
2019-04-14T04:22:17.442Z,7.00
2019-04-14T04:27:26.731Z,8.47
2019-04-14T04:32:38.294Z,7.60
2019-04-14T04:37:54.411Z,9.23
2019-04-14T04:42:59.092Z,6.63
2019-04-14T04:48:02.898Z,7.03
2019-04-14T04:53:06.999Z,7.30
2019-04-14T04:58:12.012Z,8.13
2019-04-14T05:03:16.842Z,9.53
2019-04-14T05:08:21.712Z,8.17
2019-04-14T05:13:29.421Z,6.73
2019-04-14T05:18:33.598Z,6.00
2019-04-14T05:23:37.333Z,9.17
2019-04-14T05:28:41.672Z,5.47
2019-04-14T05:33:45.423Z,4.77
2019-04-14T05:39:00.249Z,6.97
2019-04-14T05:44:05.249Z,5.93
2019-04-14T05:49:10.935Z,7.00
2019-04-14T05:54:16.292Z,5.37
2019-04-14T05:59:20.289Z,6.97
2019-04-14T06:04:24.370Z,5.67
2019-04-14T06:09:28.194Z,5.47
2019-04-14T06:14:31.918Z,6.73
2019-04-14T06:19:38.074Z,4.53
2019-04-14T06:24:41.058Z,7.40
2019-04-14T06:29:45.062Z,5.27
2019-04-14T06:35:07.873Z,7.73
2019-04-14T06:40:11.833Z,5.63
2019-04-14T06:45:15.743Z,6.63
2019-04-14T06:50:19.834Z,5.10
2019-04-14T06:55:23.597Z,6.17
2019-04-14T07:00:27.624Z,5.43
2019-04-14T07:05:31.645Z,7.03
2019-04-14T07:10:35.636Z,6.07
2019-04-14T07:15:39.401Z,5.90
2019-04-14T07:20:43.392Z,6.23
2019-04-14T07:25:47.119Z,6.20
2019-04-14T07:31:09.930Z,5.60
2019-04-14T07:36:44.905Z,5.83
2019-04-14T07:42:04.834Z,8.47
2019-04-14T07:47:15.025Z,10.23
2019-04-14T08:17:06.857Z,9.83
2019-04-14T08:22:08.688Z,8.67
2019-04-14T08:34:14.817Z,12.47
2019-04-14T08:39:30.528Z,10.77
2019-04-14T08:45:32.371Z,11.13
2019-04-14T08:51:20.528Z,10.87
2019-04-14T09:03:25.994Z,11.80
2019-04-14T09:08:36.749Z,12.93
2019-04-14T09:31:09.573Z,14.90
2019-04-14T09:49:30.869Z,13.67
2019-04-14T09:54:45.389Z,17.73
2019-04-14T10:00:03.462Z,14.57
2019-04-14T10:05:38.906Z,13.67
2019-04-14T10:10:48.067Z,13.33
2019-04-14T10:15:57.328Z,15.87
2019-04-14T10:21:17.406Z,16.47
2019-04-14T10:26:39.892Z,19.70
2019-04-14T10:31:54.275Z,17.33
2019-04-14T10:36:58.233Z,17.60
2019-04-14T10:42:16.711Z,19.33
2019-04-14T10:47:26.956Z,19.20
2019-04-14T10:53:14.500Z,16.40
2019-04-14T10:58:15.963Z,14.37
2019-04-14T11:03:19.741Z,15.80
2019-04-14T11:08:23.797Z,16.27
2019-04-14T11:13:27.620Z,18.13
2019-04-14T11:18:31.450Z,20.47
2019-04-14T11:23:35.139Z,21.07
2019-04-14T11:28:39.091Z,19.10
2019-04-14T11:34:01.437Z,19.83
2019-04-14T11:39:09.505Z,22.73
2019-04-14T11:44:13.334Z,25.47
2019-04-14T11:49:17.049Z,24.73
2019-04-14T11:54:21.003Z,23.40
2019-04-14T11:59:34.879Z,24.80
2019-04-14T12:04:43.980Z,24.83
2019-04-14T12:10:19.044Z,22.90
2019-04-14T12:15:22.729Z,29.43
2019-04-14T12:20:26.446Z,22.63
2019-04-14T12:25:30.120Z,25.27
2019-04-14T12:30:33.943Z,23.00
2019-04-14T12:35:37.717Z,27.70
2019-04-14T12:40:41.584Z,25.47
2019-04-14T12:46:00.649Z,24.43
2019-04-14T12:51:15.214Z,27.13
2019-04-14T12:56:22.900Z,26.57
2019-04-14T13:01:27.937Z,29.20
2019-04-14T13:06:31.629Z,27.83
2019-04-14T13:11:35.325Z,26.53
2019-04-14T13:16:39.479Z,27.27
2019-04-14T13:21:43.233Z,29.30
2019-04-14T13:26:47.268Z,28.70
2019-04-14T13:31:51.059Z,27.73
2019-04-14T13:36:54.745Z,25.63
2019-04-14T13:41:58.575Z,24.33
2019-04-14T13:47:02.299Z,24.70
2019-04-14T13:52:06.201Z,24.03
2019-04-14T13:57:09.886Z,24.67
2019-04-14T14:02:13.918Z,23.10
2019-04-14T14:07:17.662Z,25.30
2019-04-14T14:12:43.510Z,28.70
2019-04-14T14:17:57.916Z,29.40
2019-04-14T14:23:19.522Z,26.50
2019-04-14T14:28:23.446Z,27.73
2019-04-14T14:33:27.149Z,29.20
2019-04-14T14:38:30.981Z,29.70
2019-04-14T14:43:35.043Z,26.00
2019-04-14T14:48:50.282Z,29.23
2019-04-14T14:53:57.229Z,33.93
2019-04-14T14:59:03.193Z,30.57
2019-04-14T15:04:09.480Z,29.93
2019-04-14T15:09:15.193Z,27.93
2019-04-14T15:14:21.308Z,32.37
2019-04-14T15:19:28.194Z,28.93
2019-04-14T15:24:35.160Z,29.07
2019-04-14T15:29:41.388Z,27.90
2019-04-14T15:34:47.572Z,27.57
2019-04-14T15:39:54.078Z,27.10
2019-04-14T15:45:00.645Z,26.77
2019-04-14T15:55:20.290Z,26.90
2019-04-14T16:00:48.154Z,21.80
2019-04-14T16:06:19.955Z,25.30
2019-04-14T16:11:31.638Z,22.80
2019-04-14T16:16:54.441Z,29.37
2019-04-14T16:21:58.109Z,24.70
2019-04-14T16:27:17.395Z,27.67
2019-04-14T16:32:28.593Z,27.70
2019-04-14T16:37:32.262Z,29.97
2019-04-14T16:42:36.009Z,32.07
2019-04-14T16:47:39.697Z,32.67
2019-04-14T16:53:00.993Z,33.57
2019-04-14T16:58:23.342Z,29.23
2019-04-14T17:03:27.331Z,29.70
2019-04-14T17:08:31.030Z,31.47
2019-04-14T17:13:38.342Z,27.37
2019-04-14T17:19:04.446Z,32.00
2019-04-14T17:24:16.581Z,30.10
2019-04-14T17:29:38.122Z,31.40
2019-04-14T17:34:51.305Z,36.87
2019-04-14T17:40:02.079Z,26.70
2019-04-14T17:45:16.019Z,30.87
2019-04-14T17:50:43.734Z,38.07
2019-04-14T17:56:26.727Z,33.27
2019-04-14T18:01:38.583Z,33.20
2019-04-14T18:07:09.601Z,32.50
2019-04-14T18:12:22.113Z,37.60
2019-04-14T18:17:30.554Z,36.00
2019-04-14T18:22:34.549Z,43.03
2019-04-14T18:27:49.395Z,33.10
2019-04-14T18:33:25.571Z,40.77
2019-04-14T18:38:54.554Z,41.13
2019-04-14T18:44:09.673Z,36.47
2019-04-14T18:49:21.795Z,38.57
2019-04-14T18:54:36.411Z,30.87
2019-04-14T18:59:58.240Z,37.93
2019-04-14T19:05:01.918Z,35.17
2019-04-14T19:10:06.901Z,34.67
2019-04-14T19:15:22.601Z,32.83
2019-04-14T19:20:26.547Z,38.33
2019-04-14T19:25:30.368Z,41.07
2019-04-14T19:30:34.084Z,35.47
2019-04-14T19:35:38.316Z,34.27
2019-04-14T19:40:42.487Z,36.03
2019-04-14T19:45:46.594Z,34.50
2019-04-14T19:50:53.889Z,39.10
2019-04-14T19:55:57.923Z,38.97
2019-04-14T20:01:01.742Z,40.67
2019-04-14T20:06:05.938Z,37.53
2019-04-14T20:11:09.620Z,36.00
2019-04-14T20:16:31.095Z,35.20
2019-04-14T20:22:03.141Z,35.87
2019-04-14T20:27:22.127Z,33.80
2019-04-14T20:32:32.403Z,36.40
2019-04-14T20:37:36.725Z,30.90
2019-04-14T20:42:42.332Z,26.77
2019-04-14T20:47:49.313Z,27.43
2019-04-14T20:52:55.806Z,25.70
2019-04-14T20:58:28.910Z,23.07
2019-04-14T21:03:45.871Z,23.73
2019-04-14T21:09:07.955Z,21.23
2019-04-14T21:14:28.654Z,19.20
2019-04-14T21:19:44.224Z,22.77
2019-04-14T21:25:10.858Z,21.63
2019-04-14T21:30:25.695Z,17.90
2019-04-14T21:35:45.004Z,16.47
2019-04-14T21:40:52.177Z,15.97
2019-04-14T21:45:59.069Z,19.23
2019-04-14T21:51:03.263Z,18.67
2019-04-14T21:56:13.826Z,22.53
2019-04-14T22:01:58.248Z,22.00
2019-04-14T22:07:20.077Z,24.80
2019-04-14T22:12:24.043Z,26.77
2019-04-14T22:17:27.771Z,26.47
2019-04-14T22:22:31.543Z,31.80
2019-04-14T22:27:35.434Z,28.13
2019-04-14T22:32:39.365Z,24.63
2019-04-14T22:37:43.132Z,24.53
2019-04-14T22:42:46.890Z,25.47
2019-04-14T22:47:50.609Z,25.57
2019-04-14T22:52:54.375Z,28.43
2019-04-14T22:57:58.064Z,26.17
2019-04-14T23:03:09.873Z,22.57
2019-04-14T23:08:38.788Z,29.20
2019-04-14T23:14:19.917Z,30.80
2019-04-14T23:19:30.818Z,28.07
2019-04-14T23:24:37.536Z,30.53
2019-04-14T23:29:41.220Z,25.40
2019-04-14T23:34:45.012Z,32.20
2019-04-14T23:39:48.686Z,31.03
2019-04-14T23:44:52.397Z,29.37
2019-04-14T23:49:56.078Z,36.00
2019-04-14T23:54:59.798Z,37.87
